createdAt,value
2019-02-28T00:00:56.274Z,53.03
2019-02-28T00:03:27.242Z,51.53
2019-02-28T00:05:55.838Z,48.93
2019-02-28T00:08:24.184Z,51.30
2019-02-28T00:10:52.526Z,53.23
2019-02-28T00:13:22.432Z,52.50
2019-02-28T00:15:51.178Z,51.47
2019-02-28T00:18:19.524Z,53.10
2019-02-28T00:20:47.890Z,50.67
2019-02-28T00:23:16.221Z,51.27
2019-02-28T00:25:44.587Z,53.23
2019-02-28T00:28:12.917Z,51.33
2019-02-28T00:30:41.602Z,49.43
2019-02-28T00:33:10.093Z,50.03
2019-02-28T00:35:38.443Z,50.60
2019-02-28T00:38:06.886Z,50.83
2019-02-28T00:40:38.534Z,51.93
2019-02-28T00:43:05.298Z,52.43
2019-02-28T00:45:37.223Z,52.73
2019-02-28T00:48:04.474Z,49.97
2019-02-28T00:50:32.815Z,50.03
2019-02-28T00:53:01.495Z,51.80
2019-02-28T00:55:30.279Z,49.30
2019-02-28T00:57:58.706Z,46.60
2019-02-28T01:00:27.062Z,47.37
2019-02-28T01:02:55.405Z,51.47
2019-02-28T01:05:23.749Z,48.63
2019-02-28T01:07:52.105Z,51.57
2019-02-28T01:10:20.447Z,49.93
2019-02-28T01:12:53.247Z,55.33
2019-02-28T01:15:18.860Z,49.93
2019-02-28T01:17:47.227Z,57.30
2019-02-28T01:20:16.793Z,54.67
2019-02-28T01:22:45.378Z,51.67
2019-02-28T01:25:15.347Z,56.53
2019-02-28T01:27:43.702Z,51.80
2019-02-28T01:30:15.210Z,53.50
2019-02-28T01:32:43.554Z,53.47
2019-02-28T01:35:11.910Z,57.97
2019-02-28T01:37:40.253Z,50.17
2019-02-28T01:40:09.378Z,56.23
2019-02-28T01:42:37.745Z,54.33
2019-02-28T01:45:09.953Z,58.07
2019-02-28T01:47:38.025Z,61.97
2019-02-28T01:50:07.446Z,52.10
2019-02-28T01:52:35.798Z,54.13
2019-02-28T01:55:04.812Z,55.40
2019-02-28T01:57:33.156Z,61.23
2019-02-28T02:00:01.507Z,64.60
2019-02-28T02:02:29.935Z,58.87
2019-02-28T02:04:58.286Z,58.30
2019-02-28T02:07:26.646Z,64.33
2019-02-28T02:09:55.006Z,62.60
2019-02-28T02:12:23.349Z,66.73
2019-02-28T02:14:51.990Z,62.60
2019-02-28T02:17:20.338Z,66.30
2019-02-28T02:19:49.369Z,64.43
2019-02-28T02:22:17.889Z,63.93
2019-02-28T02:24:46.237Z,63.13
2019-02-28T02:27:16.333Z,64.33
2019-02-28T02:29:44.637Z,58.70
2019-02-28T02:32:12.995Z,61.17
2019-02-28T02:34:41.339Z,65.17
2019-02-28T02:37:09.691Z,61.60
2019-02-28T02:39:38.040Z,62.77
2019-02-28T02:42:10.417Z,66.00
2019-02-28T02:44:36.727Z,66.40
2019-02-28T02:47:05.084Z,67.50
2019-02-28T02:49:33.442Z,67.17
2019-02-28T02:52:01.784Z,63.97
2019-02-28T02:54:30.125Z,69.43
2019-02-28T02:56:58.461Z,66.93
2019-02-28T02:59:26.819Z,64.40
2019-02-28T03:01:56.232Z,72.77
2019-02-28T03:04:25.218Z,71.57
2019-02-28T03:06:53.556Z,67.80
2019-02-28T03:09:21.910Z,73.30
2019-02-28T03:11:50.274Z,62.67
2019-02-28T03:14:18.686Z,63.90
2019-02-28T03:16:47.037Z,66.10
2019-02-28T03:19:15.384Z,65.57
2019-02-28T03:21:51.643Z,65.30
2019-02-28T03:24:16.282Z,64.70
2019-02-28T03:26:45.077Z,69.30
2019-02-28T03:29:13.419Z,63.93
2019-02-28T03:31:41.766Z,60.87
2019-02-28T03:34:13.759Z,69.10
2019-02-28T03:36:40.186Z,58.93
2019-02-28T03:39:08.531Z,67.00
2019-02-28T03:41:36.909Z,63.23
2019-02-28T03:44:05.257Z,62.07
2019-02-28T03:46:33.622Z,60.17
2019-02-28T03:49:01.967Z,62.00
2019-02-28T03:51:30.324Z,64.00
2019-02-28T03:53:58.665Z,65.00
2019-02-28T03:56:27.020Z,64.30
2019-02-28T03:58:56.446Z,64.90
2019-02-28T04:01:24.789Z,63.70
2019-02-28T04:03:53.142Z,68.10
2019-02-28T04:06:22.462Z,63.40
2019-02-28T04:08:51.702Z,65.13
2019-02-28T04:11:20.058Z,65.30
2019-02-28T04:13:52.362Z,62.30
2019-02-28T04:16:18.475Z,68.93
2019-02-28T04:18:46.918Z,66.90
2019-02-28T04:21:15.338Z,63.97
2019-02-28T04:23:43.698Z,59.13
2019-02-28T04:26:12.038Z,62.37
2019-02-28T04:28:40.452Z,62.00
2019-02-28T04:31:08.826Z,60.07
2019-02-28T04:33:39.128Z,63.97
2019-02-28T04:36:07.210Z,63.83
2019-02-28T04:38:35.558Z,57.37
2019-02-28T04:41:06.259Z,64.50
2019-02-28T04:43:34.604Z,54.30
2019-02-28T04:46:02.965Z,60.43
2019-02-28T04:48:31.318Z,65.27
2019-02-28T04:51:02.324Z,62.17
2019-02-28T04:53:29.760Z,62.93
2019-02-28T04:55:58.116Z,59.70
2019-02-28T04:58:26.461Z,59.70
2019-02-28T05:00:54.851Z,60.73
2019-02-28T05:03:27.911Z,59.33
2019-02-28T05:05:53.265Z,58.57
2019-02-28T05:08:21.614Z,62.60
2019-02-28T05:10:49.963Z,56.93
2019-02-28T05:13:18.315Z,59.10
2019-02-28T05:15:46.668Z,55.03
2019-02-28T05:18:15.022Z,63.27
2019-02-28T05:20:45.942Z,59.20
2019-02-28T05:23:13.437Z,62.57
2019-02-28T05:25:41.798Z,61.43
2019-02-28T05:28:10.144Z,66.53
2019-02-28T05:30:38.494Z,57.70
2019-02-28T05:33:07.454Z,63.70
2019-02-28T05:35:36.077Z,63.03
2019-02-28T05:38:04.417Z,62.40
2019-02-28T05:40:32.780Z,60.43
2019-02-28T05:43:01.116Z,63.33
2019-02-28T05:45:29.463Z,61.93
2019-02-28T05:47:57.826Z,66.97
2019-02-28T05:50:26.166Z,65.70
2019-02-28T05:52:54.523Z,64.57
2019-02-28T05:55:25.629Z,66.47
2019-02-28T05:57:52.916Z,66.30
2019-02-28T06:00:22.912Z,61.37
2019-02-28T06:02:51.245Z,61.20
2019-02-28T06:05:19.589Z,56.40
2019-02-28T06:07:47.941Z,55.20
2019-02-28T06:10:16.277Z,66.73
2019-02-28T06:12:45.059Z,65.43
2019-02-28T06:15:14.546Z,62.37
2019-02-28T06:17:42.901Z,64.97
2019-02-28T06:20:11.664Z,61.47
2019-02-28T06:22:41.069Z,75.60
2019-02-28T06:25:10.249Z,66.57
2019-02-28T06:27:41.843Z,71.57
2019-02-28T06:30:15.118Z,71.07
2019-02-28T06:32:44.652Z,68.60
2019-02-28T06:35:16.118Z,70.57
2019-02-28T06:37:43.115Z,64.53
2019-02-28T06:40:14.312Z,69.00
2019-02-28T06:42:43.441Z,64.17
2019-02-28T06:45:17.824Z,65.10
2019-02-28T06:47:49.740Z,68.03
2019-02-28T06:50:16.462Z,69.87
2019-02-28T06:52:46.906Z,64.73
2019-02-28T06:55:22.813Z,69.67
2019-02-28T06:57:51.157Z,68.63
2019-02-28T07:00:19.513Z,61.53
2019-02-28T07:02:49.973Z,69.47
2019-02-28T07:05:17.909Z,68.23
2019-02-28T07:07:49.044Z,74.57
2019-02-28T07:10:17.970Z,81.77
2019-02-28T07:12:46.312Z,78.70
2019-02-28T07:15:17.134Z,62.43
2019-02-28T07:17:48.253Z,67.77
2019-02-28T07:20:22.570Z,69.97
2019-02-28T07:22:55.514Z,78.43
2019-02-28T07:25:23.711Z,67.20
2019-02-28T07:27:52.738Z,64.63
2019-02-28T07:30:21.073Z,77.00
2019-02-28T07:32:49.457Z,69.07
2019-02-28T07:35:17.831Z,73.53
2019-02-28T07:37:46.188Z,66.37
2019-02-28T07:40:16.390Z,78.47
2019-02-28T07:42:45.897Z,74.07
2019-02-28T07:45:14.585Z,81.73
2019-02-28T07:47:42.935Z,83.17
2019-02-28T07:50:12.913Z,78.93
2019-02-28T07:52:41.263Z,78.43
2019-02-28T07:55:11.249Z,79.30
2019-02-28T07:57:39.658Z,80.87
2019-02-28T08:00:09.712Z,80.57
2019-02-28T08:02:39.269Z,76.13
2019-02-28T08:05:09.865Z,81.73
2019-02-28T08:07:38.204Z,94.63
2019-02-28T08:10:08.190Z,84.47
2019-02-28T08:12:39.562Z,65.90
2019-02-28T08:15:09.282Z,84.10
2019-02-28T08:17:40.632Z,71.80
2019-02-28T08:20:07.857Z,93.17
2019-02-28T08:22:37.165Z,87.93
2019-02-28T08:25:09.790Z,82.93
2019-02-28T08:27:38.130Z,83.83
2019-02-28T08:30:08.103Z,86.73
2019-02-28T08:32:36.451Z,77.37
2019-02-28T08:35:07.001Z,87.60
2019-02-28T08:37:36.751Z,80.77
2019-02-28T08:40:06.702Z,89.30
2019-02-28T08:42:38.473Z,81.33
2019-02-28T08:45:06.658Z,86.60
2019-02-28T08:47:37.889Z,87.60
2019-02-28T08:50:19.048Z,99.73
2019-02-28T08:52:43.662Z,78.80
2019-02-28T08:55:13.374Z,99.07
2019-02-28T08:57:41.730Z,92.77
2019-02-28T09:00:18.190Z,61.90
2019-02-28T09:02:52.975Z,87.33
2019-02-28T09:05:25.424Z,46.80
2019-02-28T09:07:51.350Z,96.97
2019-02-28T09:10:21.121Z,79.60
2019-02-28T09:12:49.480Z,96.03
2019-02-28T09:15:17.898Z,101.93
2019-02-28T09:17:46.322Z,95.60
2019-02-28T09:20:14.924Z,92.63
2019-02-28T09:22:43.288Z,98.67
2019-02-28T09:25:13.185Z,85.27
2019-02-28T09:27:44.376Z,99.30
2019-02-28T09:30:32.727Z,99.33
2019-02-28T09:33:01.074Z,96.87
2019-02-28T09:35:29.440Z,103.03
2019-02-28T09:37:57.788Z,102.47
2019-02-28T09:40:29.504Z,110.77
2019-02-28T09:42:57.826Z,92.97
2019-02-28T09:45:27.258Z,107.17
2019-02-28T09:48:00.850Z,96.20
2019-02-28T09:50:28.418Z,96.87
2019-02-28T09:52:56.778Z,99.80
2019-02-28T09:55:25.138Z,93.33
2019-02-28T09:57:54.712Z,97.10
2019-02-28T10:00:27.775Z,98.10
2019-02-28T10:02:56.221Z,97.53
2019-02-28T10:05:24.889Z,96.90
2019-02-28T10:07:53.246Z,91.53
2019-02-28T10:10:26.200Z,98.47
2019-02-28T10:12:56.878Z,100.67
2019-02-28T10:15:25.571Z,94.57
2019-02-28T10:17:55.151Z,77.97
2019-02-28T10:20:28.515Z,102.93
2019-02-28T10:22:57.107Z,113.37
2019-02-28T10:25:30.027Z,119.90
2019-02-28T10:28:01.654Z,92.17
2019-02-28T10:30:32.294Z,112.70
2019-02-28T10:32:59.773Z,100.83
2019-02-28T10:35:33.486Z,72.73
2019-02-28T10:38:04.222Z,63.90
2019-02-28T10:40:32.579Z,107.97
2019-02-28T10:43:02.817Z,89.00
2019-02-28T10:45:31.180Z,102.23
2019-02-28T10:48:02.958Z,104.93
2019-02-28T10:50:33.361Z,103.33
2019-02-28T10:53:05.506Z,96.57
2019-02-28T10:55:31.578Z,75.57
2019-02-28T10:57:59.992Z,84.27
2019-02-28T11:00:32.757Z,121.63
2019-02-28T11:03:01.670Z,101.97
2019-02-28T11:05:38.591Z,98.57
2019-02-28T11:08:09.706Z,108.87
2019-02-28T11:10:39.737Z,111.73
2019-02-28T11:13:09.654Z,108.17
2019-02-28T11:15:38.160Z,114.83
2019-02-28T11:18:09.764Z,92.93
2019-02-28T11:20:38.361Z,80.70
2019-02-28T11:23:07.750Z,92.57
2019-02-28T11:25:38.655Z,102.90
2019-02-28T11:28:07.024Z,94.07
2019-02-28T11:30:36.137Z,93.93
2019-02-28T11:33:05.376Z,86.43
2019-02-28T11:35:33.714Z,65.77
2019-02-28T11:38:04.903Z,91.20
2019-02-28T11:40:35.726Z,80.43
2019-02-28T11:43:04.510Z,88.03
2019-02-28T11:45:36.699Z,74.60
2019-02-28T11:48:12.929Z,95.20
2019-02-28T11:50:44.733Z,85.20
2019-02-28T11:53:11.669Z,89.67
2019-02-28T11:55:41.969Z,50.50
2019-02-28T11:58:16.613Z,65.17
2019-02-28T12:01:30.474Z,84.03
2019-02-28T12:03:13.834Z,72.87
2019-02-28T12:05:43.165Z,57.20
2019-02-28T12:08:13.686Z,62.63
2019-02-28T12:10:43.223Z,76.90
2019-02-28T12:13:12.628Z,85.47
2019-02-28T12:15:41.924Z,82.57
2019-02-28T12:18:12.449Z,97.47
2019-02-28T12:20:43.114Z,63.67
2019-02-28T12:23:11.487Z,97.57
2019-02-28T12:25:43.646Z,90.20
2019-02-28T12:28:12.134Z,52.67
2019-02-28T12:30:42.112Z,56.83
2019-02-28T12:33:10.463Z,88.67
2019-02-28T12:35:40.658Z,64.83
2019-02-28T12:38:09.317Z,86.97
2019-02-28T12:40:39.035Z,69.07
2019-02-28T12:43:09.585Z,93.00
2019-02-28T12:45:39.259Z,84.50
2019-02-28T12:48:08.443Z,90.37
2019-02-28T12:50:38.229Z,48.73
2019-02-28T12:53:06.564Z,85.43
2019-02-28T12:55:35.403Z,73.80
2019-02-28T12:58:04.975Z,86.03
2019-02-28T13:00:39.688Z,61.50
2019-02-28T13:03:09.245Z,94.83
2019-02-28T13:05:37.818Z,71.73
2019-02-28T13:08:07.794Z,63.70
2019-02-28T13:10:36.418Z,75.17
2019-02-28T13:13:07.201Z,74.73
2019-02-28T13:15:35.172Z,52.03
2019-02-28T13:18:07.514Z,43.33
2019-02-28T13:20:36.439Z,44.63
2019-02-28T13:23:04.370Z,43.97
2019-02-28T13:25:32.701Z,42.23
2019-02-28T13:28:01.126Z,37.17
2019-02-28T13:30:29.775Z,33.70
2019-02-28T13:32:58.127Z,32.27
2019-02-28T13:35:30.426Z,28.30
2019-02-28T13:37:58.776Z,29.73
2019-02-28T13:40:28.356Z,36.40
2019-02-28T13:42:56.908Z,32.30
2019-02-28T13:45:25.260Z,28.83
2019-02-28T13:47:53.615Z,27.00
2019-02-28T13:50:25.911Z,25.37
2019-02-28T13:52:53.774Z,27.27
2019-02-28T13:55:22.146Z,23.70
2019-02-28T13:57:51.635Z,20.83
2019-02-28T14:00:25.413Z,22.90
2019-02-28T14:02:54.629Z,22.70
2019-02-28T14:05:22.981Z,26.40
2019-02-28T14:07:51.317Z,25.60
2019-02-28T14:10:20.933Z,21.10
2019-02-28T14:12:49.261Z,17.93
2019-02-28T14:15:19.231Z,23.50
2019-02-28T14:17:47.642Z,16.50
2019-02-28T14:20:17.261Z,19.03
2019-02-28T14:22:46.569Z,15.90
2019-02-28T14:25:15.420Z,21.43
2019-02-28T14:27:43.753Z,18.27
2019-02-28T14:30:13.713Z,18.17
2019-02-28T14:32:45.413Z,17.20
2019-02-28T14:35:22.717Z,17.63
2019-02-28T14:37:51.771Z,15.47
2019-02-28T14:40:21.009Z,11.93
2019-02-28T14:42:49.350Z,13.77
2019-02-28T14:45:20.453Z,14.33
2019-02-28T14:47:57.083Z,16.40
2019-02-28T14:50:21.773Z,16.13
2019-02-28T14:52:51.758Z,16.43
2019-02-28T14:55:21.547Z,16.43
2019-02-28T14:57:49.962Z,20.53
2019-02-28T15:00:20.907Z,18.37
2019-02-28T15:02:50.707Z,12.63
2019-02-28T15:05:21.543Z,15.10
2019-02-28T15:07:50.088Z,12.90
2019-02-28T15:10:22.886Z,14.97
2019-02-28T15:12:55.395Z,15.93
2019-02-28T15:15:22.664Z,15.23
2019-02-28T15:17:52.854Z,22.20
2019-02-28T15:20:24.170Z,22.17
2019-02-28T15:22:55.798Z,17.80
2019-02-28T15:25:25.053Z,20.33
2019-02-28T15:27:53.401Z,18.23
2019-02-28T15:30:38.535Z,14.90
2019-02-28T15:33:06.873Z,13.57
2019-02-28T15:35:35.206Z,20.47
2019-02-28T15:38:05.853Z,15.47
2019-02-28T15:40:37.737Z,19.50
2019-02-28T15:43:06.070Z,19.20
2019-02-28T15:45:37.379Z,14.47
2019-02-28T15:48:05.882Z,16.50
2019-02-28T15:50:34.238Z,14.33
2019-02-28T15:53:03.823Z,10.20
2019-02-28T15:55:35.305Z,10.17
2019-02-28T15:58:05.989Z,7.20
2019-02-28T16:00:34.736Z,7.47
2019-02-28T16:03:03.062Z,12.47
2019-02-28T16:05:31.406Z,11.20
2019-02-28T16:07:59.767Z,10.93
2019-02-28T16:10:31.834Z,5.70
2019-02-28T16:12:59.765Z,12.40
2019-02-28T16:15:28.570Z,11.23
2019-02-28T16:17:56.897Z,15.67
2019-02-28T16:20:28.449Z,9.23
2019-02-28T16:22:55.432Z,14.50
2019-02-28T16:25:25.404Z,11.33
2019-02-28T16:27:54.764Z,3.67
2019-02-28T16:30:23.114Z,5.70
2019-02-28T16:32:51.469Z,9.83
2019-02-28T16:35:19.806Z,7.13
2019-02-28T16:37:48.133Z,4.77
2019-02-28T16:40:20.788Z,8.63
2019-02-28T16:42:48.446Z,10.17
2019-02-28T16:45:22.710Z,6.00
2019-02-28T16:47:51.038Z,2.80
2019-02-28T16:50:19.759Z,5.33
2019-02-28T16:52:48.165Z,7.10
2019-02-28T16:55:16.513Z,5.37
2019-02-28T16:57:47.105Z,11.20
2019-02-28T17:00:16.437Z,12.00
2019-02-28T17:02:44.837Z,7.33
2019-02-28T17:05:13.193Z,4.73
2019-02-28T17:07:43.592Z,9.10
2019-02-28T17:10:13.978Z,11.07
2019-02-28T17:12:43.967Z,10.17
2019-02-28T17:15:13.954Z,12.17
2019-02-28T17:17:46.944Z,10.43
2019-02-28T17:20:14.062Z,15.10
2019-02-28T17:22:42.393Z,10.53
2019-02-28T17:25:10.738Z,11.77
2019-02-28T17:27:41.367Z,7.63
2019-02-28T17:30:17.379Z,12.13
2019-02-28T17:32:45.709Z,13.80
2019-02-28T17:35:15.179Z,11.67
2019-02-28T17:37:43.524Z,10.97
2019-02-28T17:40:12.908Z,13.10
2019-02-28T17:42:46.369Z,15.33
2019-02-28T17:45:16.437Z,11.30
2019-02-28T17:47:49.350Z,9.70
2019-02-28T17:50:20.586Z,14.53
2019-02-28T17:52:50.558Z,12.70
2019-02-28T17:55:27.069Z,12.40
2019-02-28T17:57:57.244Z,11.40
2019-02-28T18:00:33.058Z,13.83
2019-02-28T18:03:18.225Z,11.93
2019-02-28T18:05:50.227Z,13.93
2019-02-28T18:08:38.501Z,11.97
2019-02-28T18:11:08.782Z,9.30
2019-02-28T18:13:38.746Z,14.40
2019-02-28T18:16:08.712Z,16.20
2019-02-28T18:18:44.886Z,15.73
2019-02-28T18:21:31.377Z,13.47
2019-02-28T18:24:19.621Z,14.40
2019-02-28T18:26:55.297Z,10.67
2019-02-28T18:29:32.254Z,11.50
2019-02-28T18:32:01.346Z,12.47
2019-02-28T18:34:29.932Z,17.53
2019-02-28T18:36:58.288Z,17.63
2019-02-28T18:39:26.622Z,14.13
2019-02-28T18:41:54.961Z,18.27
2019-02-28T18:44:23.619Z,15.17
2019-02-28T18:46:53.432Z,15.67
2019-02-28T18:49:21.779Z,12.03
2019-02-28T18:51:51.184Z,17.03
2019-02-28T18:54:19.526Z,18.37
2019-02-28T18:56:47.865Z,17.83
2019-02-28T18:59:16.207Z,23.27
2019-02-28T19:01:44.563Z,7.73
2019-02-28T19:04:12.902Z,14.80
2019-02-28T19:06:41.482Z,20.30
2019-02-28T19:09:17.286Z,14.00
2019-02-28T19:11:46.813Z,14.00
2019-02-28T19:14:15.229Z,10.13
2019-02-28T19:16:43.574Z,17.27
2019-02-28T19:19:11.990Z,15.17
2019-02-28T19:21:40.645Z,10.47
2019-02-28T19:24:08.982Z,13.77
2019-02-28T19:26:37.320Z,11.27
2019-02-28T19:29:05.687Z,12.63
2019-02-28T19:31:34.038Z,15.83
2019-02-28T19:34:02.381Z,11.60
2019-02-28T19:36:30.758Z,10.20
2019-02-28T19:38:59.158Z,10.47
2019-02-28T19:41:27.570Z,12.37
2019-02-28T19:43:55.995Z,12.00
2019-02-28T19:46:24.705Z,13.53
2019-02-28T19:48:53.045Z,15.90
2019-02-28T19:51:21.710Z,17.30
2019-02-28T19:53:50.053Z,10.60
2019-02-28T19:56:18.388Z,11.80
2019-02-28T19:58:46.744Z,17.27
2019-02-28T20:01:19.001Z,11.47
2019-02-28T20:03:45.144Z,15.20
2019-02-28T20:06:13.490Z,14.57
2019-02-28T20:08:41.829Z,19.77
2019-02-28T20:11:10.204Z,16.07
2019-02-28T20:13:38.610Z,17.37
2019-02-28T20:16:07.934Z,16.40
2019-02-28T20:18:36.290Z,10.23
2019-02-28T20:21:04.805Z,20.47
2019-02-28T20:23:33.162Z,16.60
2019-02-28T20:26:01.502Z,21.20
2019-02-28T20:28:29.858Z,18.93
2019-02-28T20:30:59.483Z,17.83
2019-02-28T20:33:27.839Z,19.07
2019-02-28T20:35:56.591Z,19.43
2019-02-28T20:38:24.949Z,16.07
2019-02-28T20:40:53.369Z,14.13
2019-02-28T20:43:21.724Z,23.10
2019-02-28T20:45:50.053Z,16.67
2019-02-28T20:48:18.580Z,15.43
2019-02-28T20:50:47.886Z,16.80
2019-02-28T20:53:16.237Z,14.10
2019-02-28T20:55:44.579Z,14.73
2019-02-28T20:58:13.001Z,20.27
2019-02-28T21:00:42.421Z,18.67
2019-02-28T21:03:10.780Z,21.23
2019-02-28T21:05:39.136Z,17.80
2019-02-28T21:08:07.534Z,15.40
2019-02-28T21:10:35.881Z,16.63
2019-02-28T21:13:04.219Z,18.23
2019-02-28T21:15:32.638Z,18.10
2019-02-28T21:18:01.053Z,18.47
2019-02-28T21:20:31.720Z,22.20
2019-02-28T21:23:01.535Z,12.63
2019-02-28T21:25:29.964Z,26.70
2019-02-28T21:27:58.300Z,13.10
2019-02-28T21:30:27.213Z,13.53
2019-02-28T21:32:55.724Z,24.27
2019-02-28T21:35:24.543Z,17.10
2019-02-28T21:37:53.356Z,20.40
2019-02-28T21:40:21.910Z,22.07
2019-02-28T21:42:50.263Z,22.93
2019-02-28T21:45:23.324Z,19.53
2019-02-28T21:47:51.671Z,20.43
2019-02-28T21:50:20.079Z,17.33
2019-02-28T21:52:48.500Z,19.00
2019-02-28T21:55:17.119Z,20.27
2019-02-28T21:57:46.637Z,22.87
2019-02-28T22:00:19.586Z,29.13
2019-02-28T22:02:48.214Z,20.10
2019-02-28T22:05:16.565Z,20.87
2019-02-28T22:07:44.917Z,19.43
2019-02-28T22:10:14.130Z,20.80
2019-02-28T22:12:42.486Z,27.97
2019-02-28T22:15:12.106Z,22.90
2019-02-28T22:17:40.448Z,17.93
2019-02-28T22:20:09.765Z,22.60
2019-02-28T22:22:38.109Z,21.83
2019-02-28T22:25:07.735Z,20.00
2019-02-28T22:27:36.163Z,17.37
2019-02-28T22:30:27.187Z,22.97
2019-02-28T22:32:57.178Z,21.83
2019-02-28T22:35:27.162Z,23.90
2019-02-28T22:37:55.525Z,22.57
2019-02-28T22:40:23.856Z,23.37
2019-02-28T22:42:52.215Z,21.47
2019-02-28T22:45:20.558Z,24.30
2019-02-28T22:47:48.921Z,22.50
2019-02-28T22:50:17.323Z,27.17
2019-02-28T22:52:45.674Z,22.93
2019-02-28T22:55:14.024Z,16.40
2019-02-28T22:57:42.379Z,30.93
2019-02-28T23:00:15.274Z,24.20
2019-02-28T23:02:43.990Z,28.47
2019-02-28T23:05:12.589Z,30.60
2019-02-28T23:07:41.908Z,35.03
2019-02-28T23:10:10.266Z,26.13
2019-02-28T23:12:38.601Z,28.87
2019-02-28T23:15:08.032Z,30.93
2019-02-28T23:17:36.374Z,30.67
2019-02-28T23:20:05.902Z,24.23
2019-02-28T23:22:34.238Z,27.93
2019-02-28T23:25:02.653Z,30.20
2019-02-28T23:27:30.990Z,16.30
2019-02-28T23:30:00.967Z,28.00
2019-02-28T23:32:35.138Z,29.23
2019-02-28T23:35:05.921Z,28.13
2019-02-28T23:37:34.257Z,17.53
2019-02-28T23:40:02.884Z,29.37
2019-02-28T23:42:31.570Z,32.20
2019-02-28T23:44:59.929Z,30.33
2019-02-28T23:47:28.269Z,24.17
2019-02-28T23:49:56.626Z,31.53
2019-02-28T23:52:24.977Z,33.87
2019-02-28T23:54:53.339Z,24.37
2019-02-28T23:57:21.676Z,35.93
2019-02-28T23:59:50.027Z,33.70
